createdAt,value
2023-02-19T00:01:10.747Z,11.67
2023-02-19T00:03:38.665Z,11.61
2023-02-19T00:06:07.461Z,11.56
2023-02-19T00:08:36.475Z,11.57
2023-02-19T00:11:07.939Z,11.50
2023-02-19T00:13:39.835Z,11.50
2023-02-19T00:16:07.700Z,11.42
2023-02-19T00:18:34.638Z,11.38
2023-02-19T00:21:01.583Z,11.31
2023-02-19T00:23:28.105Z,11.24
2023-02-19T00:25:55.380Z,11.33
2023-02-19T00:28:22.221Z,11.30
2023-02-19T00:30:48.771Z,11.26
2023-02-19T00:33:16.227Z,11.22
2023-02-19T00:35:42.811Z,11.17
2023-02-19T00:38:10.702Z,11.20
2023-02-19T00:40:38.837Z,11.11
2023-02-19T00:43:05.307Z,11.02
2023-02-19T00:45:31.817Z,11.03
2023-02-19T00:47:58.343Z,11.01
2023-02-19T00:50:24.893Z,11.07
2023-02-19T00:52:51.373Z,11.12
2023-02-19T00:55:17.973Z,11.04
2023-02-19T00:57:44.437Z,11.04
2023-02-19T01:00:12.906Z,10.99
2023-02-19T01:02:39.367Z,10.97
2023-02-19T01:05:06.444Z,10.92
2023-02-19T01:07:35.970Z,10.92
2023-02-19T01:10:02.454Z,10.95
2023-02-19T01:12:29.077Z,10.97
2023-02-19T01:14:55.679Z,10.97
2023-02-19T01:17:22.247Z,10.96
2023-02-19T01:19:48.742Z,10.97
2023-02-19T01:22:15.233Z,11.00
2023-02-19T01:24:41.757Z,10.94
2023-02-19T01:27:08.316Z,10.98
2023-02-19T01:29:34.818Z,11.00
2023-02-19T01:32:01.462Z,10.98
2023-02-19T01:34:30.416Z,11.01
2023-02-19T01:36:56.913Z,10.99
2023-02-19T01:39:23.402Z,10.99
2023-02-19T01:41:50.025Z,10.99
2023-02-19T01:44:18.108Z,10.93
2023-02-19T01:46:51.493Z,10.92
2023-02-19T01:49:23.283Z,10.92
2023-02-19T01:52:04.317Z,11.03
2023-02-19T01:54:35.071Z,11.07
2023-02-19T01:57:06.853Z,10.99
2023-02-19T01:59:34.193Z,10.92
2023-02-19T02:02:01.021Z,10.94
2023-02-19T02:04:30.910Z,10.89
2023-02-19T02:06:59.748Z,10.92
2023-02-19T02:09:47.407Z,10.89
2023-02-19T02:12:14.016Z,11.08
2023-02-19T02:14:45.684Z,11.06
2023-02-19T02:17:26.365Z,11.01
2023-02-19T02:20:11.060Z,10.93
2023-02-19T02:22:45.626Z,10.82
2023-02-19T02:25:14.844Z,10.78
2023-02-19T02:28:21.878Z,10.66
2023-02-19T02:31:09.927Z,10.63
2023-02-19T02:33:44.451Z,10.45
2023-02-19T02:36:18.546Z,10.44
2023-02-19T02:38:47.335Z,10.25
2023-02-19T02:41:15.183Z,10.19
2023-02-19T02:43:41.879Z,10.10
2023-02-19T02:46:14.045Z,10.05
2023-02-19T02:48:43.839Z,9.95
2023-02-19T02:51:18.946Z,9.94
2023-02-19T02:54:12.036Z,9.91
2023-02-19T02:56:41.237Z,9.82
2023-02-19T02:59:10.782Z,9.89
2023-02-19T03:02:04.418Z,9.82
2023-02-19T03:05:14.814Z,9.75
2023-02-19T03:07:55.812Z,9.70
2023-02-19T03:10:45.907Z,9.69
2023-02-19T03:13:50.779Z,9.64
2023-02-19T03:16:49.328Z,9.59
2023-02-19T03:19:20.967Z,9.52
2023-02-19T03:21:55.041Z,9.57
2023-02-19T03:24:45.324Z,9.58
2023-02-19T03:27:13.996Z,9.55
2023-02-19T03:29:42.868Z,9.46
2023-02-19T03:32:35.620Z,9.46
2023-02-19T03:35:07.184Z,9.52
2023-02-19T03:37:44.101Z,9.45
2023-02-19T03:40:11.875Z,9.52
2023-02-19T03:42:56.932Z,9.55
2023-02-19T03:45:27.568Z,9.54
2023-02-19T03:48:02.911Z,9.59
2023-02-19T03:50:56.085Z,9.52
2023-02-19T03:53:34.135Z,9.46
2023-02-19T03:56:10.022Z,9.42
2023-02-19T03:59:00.893Z,9.45
2023-02-19T04:01:35.088Z,9.46
2023-02-19T04:04:16.896Z,9.47
2023-02-19T04:06:46.624Z,9.50
2023-02-19T04:09:15.078Z,9.47
2023-02-19T04:11:41.914Z,9.53
2023-02-19T04:14:17.905Z,9.47
2023-02-19T04:16:47.716Z,9.43
2023-02-19T04:19:18.844Z,9.56
2023-02-19T04:21:47.049Z,9.55
2023-02-19T04:24:19.235Z,9.60
2023-02-19T04:26:46.218Z,9.57
2023-02-19T04:29:12.732Z,9.54
2023-02-19T04:31:39.382Z,9.54
2023-02-19T04:34:06.072Z,9.45
2023-02-19T04:36:33.183Z,9.47
2023-02-19T04:38:59.754Z,9.38
2023-02-19T04:41:26.493Z,9.42
2023-02-19T04:43:53.224Z,9.37
2023-02-19T04:46:19.756Z,9.44
2023-02-19T04:48:46.249Z,9.40
2023-02-19T04:51:13.070Z,9.37
2023-02-19T04:53:39.716Z,9.28
2023-02-19T04:56:11.793Z,9.27
2023-02-19T04:58:38.621Z,9.24
2023-02-19T05:01:05.227Z,9.26
2023-02-19T05:03:32.124Z,9.14
2023-02-19T05:06:02.808Z,9.12
2023-02-19T05:08:29.374Z,9.21
2023-02-19T05:11:00.821Z,9.23
2023-02-19T05:13:28.249Z,9.16
2023-02-19T05:15:59.779Z,9.12
2023-02-19T05:18:26.722Z,9.17
2023-02-19T05:20:53.700Z,9.18
2023-02-19T05:23:21.093Z,9.18
2023-02-19T05:25:47.600Z,9.23
2023-02-19T05:28:19.702Z,9.18
2023-02-19T05:30:47.080Z,9.22
2023-02-19T05:33:14.495Z,9.20
2023-02-19T05:35:45.825Z,9.24
2023-02-19T05:38:13.022Z,9.26
2023-02-19T05:40:40.474Z,9.24
2023-02-19T05:43:08.086Z,9.30
2023-02-19T05:45:35.340Z,9.28
2023-02-19T05:48:02.496Z,9.21
2023-02-19T05:50:30.072Z,9.28
2023-02-19T05:52:56.659Z,9.23
2023-02-19T05:55:24.075Z,9.22
2023-02-19T05:57:50.563Z,9.15
2023-02-19T06:00:19.420Z,9.21
2023-02-19T06:02:46.687Z,9.26
2023-02-19T06:05:13.863Z,9.34
2023-02-19T06:07:41.662Z,9.25
2023-02-19T06:10:10.181Z,9.24
2023-02-19T06:12:37.448Z,9.30
2023-02-19T06:15:05.667Z,9.32
2023-02-19T06:17:33.483Z,9.27
2023-02-19T06:20:00.469Z,9.30
2023-02-19T06:22:28.003Z,9.26
2023-02-19T06:24:54.502Z,9.22
2023-02-19T06:27:21.018Z,9.35
2023-02-19T06:29:47.487Z,9.28
2023-02-19T06:32:14.174Z,9.24
2023-02-19T06:34:40.890Z,9.30
2023-02-19T06:37:07.462Z,9.33
2023-02-19T06:39:33.932Z,9.30
2023-02-19T06:42:00.463Z,9.33
2023-02-19T06:44:26.927Z,9.31
2023-02-19T06:46:56.349Z,9.40
2023-02-19T06:49:22.964Z,9.44
2023-02-19T06:51:49.538Z,9.47
2023-02-19T06:54:16.017Z,9.58
2023-02-19T06:56:43.946Z,9.47
2023-02-19T06:59:16.840Z,9.58
2023-02-19T07:01:44.888Z,9.59
2023-02-19T07:04:11.951Z,9.59
2023-02-19T07:06:39.300Z,9.56
2023-02-19T07:09:07.560Z,9.69
2023-02-19T07:11:36.418Z,9.79
2023-02-19T07:14:04.699Z,9.78
2023-02-19T07:16:31.286Z,9.82
2023-02-19T07:18:59.635Z,9.98
2023-02-19T07:21:27.696Z,10.09
2023-02-19T07:23:54.813Z,10.24
2023-02-19T07:26:21.753Z,10.26
2023-02-19T07:28:50.550Z,10.43
2023-02-19T07:31:19.351Z,10.45
2023-02-19T07:33:47.064Z,10.52
2023-02-19T07:36:16.902Z,10.60
2023-02-19T07:38:43.957Z,10.67
2023-02-19T07:41:10.969Z,10.68
2023-02-19T07:43:38.782Z,10.56
2023-02-19T07:46:06.919Z,10.52
2023-02-19T07:48:35.426Z,10.49
2023-02-19T07:51:03.681Z,10.44
2023-02-19T07:53:30.472Z,10.47
2023-02-19T07:56:02.287Z,10.38
2023-02-19T07:58:29.480Z,10.34
2023-02-19T08:00:56.077Z,10.38
2023-02-19T08:03:22.695Z,10.45
2023-02-19T08:05:53.819Z,10.59
2023-02-19T08:08:20.428Z,10.77
2023-02-19T08:11:05.443Z,10.69
2023-02-19T08:13:31.968Z,10.64
2023-02-19T08:16:16.045Z,10.54
2023-02-19T08:18:46.062Z,10.47
2023-02-19T08:21:13.151Z,10.43
2023-02-19T08:23:40.146Z,10.39
2023-02-19T08:26:07.011Z,10.51
2023-02-19T08:28:33.563Z,10.60
2023-02-19T08:31:06.491Z,10.64
2023-02-19T08:33:33.585Z,10.61
2023-02-19T08:36:05.535Z,10.69
2023-02-19T08:38:34.782Z,10.67
2023-02-19T08:41:06.180Z,10.58
2023-02-19T08:43:33.135Z,10.51
2023-02-19T08:45:59.681Z,10.31
2023-02-19T08:48:26.392Z,10.23
2023-02-19T08:51:05.124Z,10.20
2023-02-19T08:53:32.887Z,10.10
2023-02-19T08:55:59.420Z,9.98
2023-02-19T08:58:26.412Z,9.96
2023-02-19T09:00:53.546Z,9.88
2023-02-19T09:03:20.074Z,9.82
2023-02-19T09:05:49.757Z,9.71
2023-02-19T09:08:16.462Z,9.69
2023-02-19T09:10:43.249Z,9.79
2023-02-19T09:13:09.736Z,9.88
2023-02-19T09:15:38.679Z,9.96
2023-02-19T09:18:05.215Z,9.98
2023-02-19T09:20:31.658Z,9.92
2023-02-19T09:22:59.460Z,9.98
2023-02-19T09:25:26.148Z,10.10
2023-02-19T09:27:56.282Z,10.21
2023-02-19T09:30:22.787Z,10.30
2023-02-19T09:32:49.405Z,10.25
2023-02-19T09:35:15.988Z,10.28
2023-02-19T09:37:42.529Z,10.20
2023-02-19T09:40:10.036Z,10.22
2023-02-19T09:42:41.756Z,10.14
2023-02-19T09:45:13.601Z,10.07
2023-02-19T09:47:40.088Z,10.07
2023-02-19T09:50:09.020Z,10.01
2023-02-19T09:52:47.778Z,9.93
2023-02-19T09:55:37.928Z,9.91
2023-02-19T09:58:28.116Z,9.89
2023-02-19T10:00:55.689Z,9.95
2023-02-19T10:03:31.745Z,9.97
2023-02-19T10:06:01.818Z,9.94
2023-02-19T10:08:31.956Z,9.94
2023-02-19T10:11:00.045Z,9.94
2023-02-19T10:14:09.207Z,9.98
2023-02-19T10:16:40.736Z,10.03
2023-02-19T10:19:12.286Z,10.48
2023-02-19T10:21:39.858Z,10.84
2023-02-19T10:24:07.367Z,10.69
2023-02-19T10:26:37.432Z,10.62
2023-02-19T10:29:04.220Z,10.68
2023-02-19T10:31:32.783Z,10.96
2023-02-19T10:34:01.982Z,11.44
2023-02-19T10:36:32.116Z,11.80
2023-02-19T10:39:01.611Z,11.72
2023-02-19T10:41:28.924Z,11.75
2023-02-19T10:44:01.316Z,12.56
2023-02-19T10:46:31.663Z,14.12
2023-02-19T10:49:06.620Z,14.38
2023-02-19T10:51:37.327Z,13.94
2023-02-19T10:54:29.846Z,13.54
2023-02-19T10:57:16.797Z,12.79
2023-02-19T10:59:58.680Z,12.47
2023-02-19T11:02:27.659Z,12.40
2023-02-19T11:05:16.228Z,13.11
2023-02-19T11:07:49.825Z,14.94
2023-02-19T11:10:28.404Z,20.97
2023-02-19T11:12:59.259Z,21.34
2023-02-19T11:15:33.497Z,25.05
2023-02-19T11:18:30.758Z,23.41
2023-02-19T11:21:03.781Z,20.32
2023-02-19T11:23:44.146Z,18.34
2023-02-19T11:26:20.823Z,21.47
2023-02-19T11:28:59.937Z,20.68
2023-02-19T11:31:35.320Z,23.18
2023-02-19T11:34:02.916Z,21.61
2023-02-19T11:36:37.658Z,19.87
2023-02-19T11:39:10.330Z,18.28
2023-02-19T11:42:11.506Z,17.20
2023-02-19T11:44:59.114Z,15.98
2023-02-19T11:47:49.809Z,15.42
2023-02-19T11:50:27.085Z,14.93
2023-02-19T11:53:03.380Z,14.51
2023-02-19T11:55:42.098Z,14.08
2023-02-19T11:58:46.272Z,14.21
2023-02-19T12:01:26.607Z,14.12
2023-02-19T12:04:17.637Z,14.52
2023-02-19T12:06:59.323Z,20.81
2023-02-19T12:09:53.760Z,28.09
2023-02-19T12:12:31.844Z,30.45
2023-02-19T12:15:09.512Z,30.81
2023-02-19T12:18:11.121Z,32.51
2023-02-19T12:21:01.561Z,33.30
2023-02-19T12:23:53.516Z,30.73
2023-02-19T12:26:35.753Z,27.76
2023-02-19T12:29:20.251Z,26.68
2023-02-19T12:31:46.784Z,24.75
2023-02-19T12:34:40.166Z,25.30
2023-02-19T12:37:14.498Z,26.51
2023-02-19T12:39:47.071Z,26.80
2023-02-19T12:42:58.042Z,25.44
2023-02-19T12:45:31.830Z,24.29
2023-02-19T12:48:16.464Z,25.74
2023-02-19T12:50:47.657Z,24.87
2023-02-19T12:53:38.994Z,22.09
2023-02-19T12:56:14.800Z,20.16
2023-02-19T12:58:48.795Z,20.10
2023-02-19T13:01:22.400Z,19.21
2023-02-19T13:03:58.125Z,18.06
2023-02-19T13:06:40.119Z,17.38
2023-02-19T13:09:23.450Z,16.60
2023-02-19T13:11:55.804Z,16.55
2023-02-19T13:14:56.928Z,16.39
2023-02-19T13:17:47.080Z,15.63
2023-02-19T13:20:22.961Z,14.98
2023-02-19T13:23:17.001Z,14.51
2023-02-19T13:26:10.826Z,14.45
2023-02-19T13:29:14.528Z,14.12
2023-02-19T13:32:05.433Z,13.88
2023-02-19T13:35:11.391Z,13.68
2023-02-19T13:37:38.329Z,13.51
2023-02-19T13:40:19.365Z,13.41
2023-02-19T13:42:53.942Z,13.35
2023-02-19T13:45:37.018Z,13.14
2023-02-19T13:48:23.683Z,13.19
2023-02-19T13:51:11.293Z,13.18
2023-02-19T13:53:47.985Z,13.29
2023-02-19T13:56:35.528Z,13.18
2023-02-19T13:59:10.934Z,12.95
2023-02-19T14:01:49.574Z,12.77
2023-02-19T14:04:22.014Z,12.69
2023-02-19T14:07:03.825Z,12.55
2023-02-19T14:09:36.227Z,12.47
2023-02-19T14:12:09.577Z,12.31
2023-02-19T14:14:40.648Z,12.30
2023-02-19T14:17:09.933Z,12.30
2023-02-19T14:19:42.668Z,12.20
2023-02-19T14:22:52.005Z,12.19
2023-02-19T14:25:27.387Z,12.19
2023-02-19T14:28:17.195Z,12.16
2023-02-19T14:30:46.809Z,12.15
2023-02-19T14:33:16.587Z,12.15
2023-02-19T14:35:49.373Z,12.16
2023-02-19T14:38:30.304Z,12.23
2023-02-19T14:40:57.505Z,12.35
2023-02-19T14:43:26.873Z,12.38
2023-02-19T14:46:04.880Z,12.43
2023-02-19T14:48:39.023Z,12.48
2023-02-19T14:51:15.160Z,12.55
2023-02-19T14:53:45.328Z,12.58
2023-02-19T14:56:23.413Z,12.70
2023-02-19T14:59:08.010Z,12.56
2023-02-19T15:01:34.570Z,12.44
2023-02-19T15:04:01.100Z,12.21
2023-02-19T15:06:29.238Z,12.05
2023-02-19T15:09:02.088Z,11.99
2023-02-19T15:11:32.439Z,11.86
2023-02-19T15:14:02.849Z,11.78
2023-02-19T15:16:32.350Z,11.64
2023-02-19T15:19:00.677Z,11.69
2023-02-19T15:21:37.868Z,11.70
2023-02-19T15:24:06.282Z,11.80
2023-02-19T15:26:40.885Z,11.77
2023-02-19T15:29:16.016Z,11.74
2023-02-19T15:31:56.277Z,11.61
2023-02-19T15:34:31.451Z,11.65
2023-02-19T15:37:01.723Z,11.54
2023-02-19T15:39:39.722Z,11.62
2023-02-19T15:42:09.338Z,11.46
2023-02-19T15:44:45.938Z,11.55
2023-02-19T15:47:37.552Z,11.43
2023-02-19T15:50:13.356Z,11.36
2023-02-19T15:52:54.141Z,11.29
2023-02-19T15:55:39.153Z,11.08
2023-02-19T15:58:23.477Z,10.95
2023-02-19T16:01:00.442Z,10.82
2023-02-19T16:03:29.251Z,10.81
2023-02-19T16:06:14.788Z,10.66
2023-02-19T16:08:43.790Z,10.68
2023-02-19T16:11:22.258Z,10.67
2023-02-19T16:13:50.119Z,10.72
2023-02-19T16:16:35.323Z,10.74
2023-02-19T16:19:02.216Z,10.57
2023-02-19T16:21:29.058Z,10.58
2023-02-19T16:24:16.676Z,10.41
2023-02-19T16:26:44.738Z,10.05
2023-02-19T16:29:32.348Z,9.88
2023-02-19T16:32:02.313Z,9.61
2023-02-19T16:34:48.656Z,9.39
2023-02-19T16:37:38.189Z,9.15
2023-02-19T16:40:07.542Z,8.99
2023-02-19T16:42:35.924Z,8.82
2023-02-19T16:45:02.646Z,8.65
2023-02-19T16:47:32.072Z,8.51
2023-02-19T16:50:01.757Z,8.43
2023-02-19T16:52:28.599Z,8.36
2023-02-19T16:54:55.222Z,8.41
2023-02-19T16:57:21.834Z,8.35
2023-02-19T16:59:48.447Z,8.30
2023-02-19T17:02:20.371Z,8.34
2023-02-19T17:04:48.540Z,8.29
2023-02-19T17:07:16.946Z,8.27
2023-02-19T17:09:43.615Z,8.27
2023-02-19T17:12:15.732Z,8.36
2023-02-19T17:14:42.248Z,8.42
2023-02-19T17:17:08.826Z,8.44
2023-02-19T17:19:35.347Z,8.46
2023-02-19T17:22:02.099Z,8.47
2023-02-19T17:24:28.620Z,8.50
2023-02-19T17:26:55.220Z,8.54
2023-02-19T17:29:22.048Z,8.55
2023-02-19T17:31:48.655Z,8.58
2023-02-19T17:34:15.220Z,8.64
2023-02-19T17:36:44.905Z,8.70
2023-02-19T17:39:15.351Z,8.62
2023-02-19T17:41:42.204Z,8.60
2023-02-19T17:44:09.092Z,8.56
2023-02-19T17:46:35.925Z,8.54
2023-02-19T17:49:02.437Z,8.58
2023-02-19T17:51:28.985Z,8.63
2023-02-19T17:53:55.513Z,8.66
2023-02-19T17:56:25.618Z,8.63
2023-02-19T17:58:52.052Z,8.63
2023-02-19T18:01:18.709Z,8.64
2023-02-19T18:03:45.790Z,8.64
2023-02-19T18:06:12.357Z,8.66
2023-02-19T18:08:38.900Z,8.62
2023-02-19T18:11:07.362Z,8.60
2023-02-19T18:13:33.932Z,8.61
2023-02-19T18:16:00.489Z,8.58
2023-02-19T18:18:27.005Z,8.57
2023-02-19T18:20:53.485Z,8.53
2023-02-19T18:23:20.708Z,8.47
2023-02-19T18:25:47.521Z,8.46
2023-02-19T18:28:14.972Z,8.45
2023-02-19T18:30:41.607Z,8.44
2023-02-19T18:33:10.801Z,8.43
2023-02-19T18:35:38.066Z,8.41
2023-02-19T18:38:04.668Z,8.38
2023-02-19T18:40:31.380Z,8.39
2023-02-19T18:42:58.655Z,8.37
2023-02-19T18:45:25.413Z,8.40
2023-02-19T18:47:52.020Z,8.37
2023-02-19T18:50:19.510Z,8.43
2023-02-19T18:52:46.491Z,8.45
2023-02-19T18:55:13.248Z,8.44
2023-02-19T18:57:39.740Z,8.43
2023-02-19T19:00:07.484Z,8.44
2023-02-19T19:02:48.339Z,8.43
2023-02-19T19:05:18.512Z,8.42
2023-02-19T19:07:45.033Z,8.38
2023-02-19T19:10:11.571Z,8.40
2023-02-19T19:12:38.099Z,8.44
2023-02-19T19:15:05.499Z,8.38
2023-02-19T19:17:32.068Z,8.39
2023-02-19T19:19:58.580Z,8.36
2023-02-19T19:22:26.662Z,8.35
2023-02-19T19:24:53.295Z,8.34
2023-02-19T19:27:20.182Z,8.36
2023-02-19T19:29:47.411Z,8.33
2023-02-19T19:32:14.237Z,8.49
2023-02-19T19:34:42.834Z,8.44
2023-02-19T19:37:10.126Z,8.45
2023-02-19T19:39:37.124Z,8.46
2023-02-19T19:42:04.464Z,8.46
2023-02-19T19:44:30.927Z,8.41
2023-02-19T19:46:57.463Z,8.37
2023-02-19T19:49:24.294Z,8.40
2023-02-19T19:51:50.824Z,8.41
2023-02-19T19:54:17.475Z,8.38
2023-02-19T19:56:46.129Z,8.34
2023-02-19T19:59:14.384Z,8.32
2023-02-19T20:01:49.087Z,8.29
2023-02-19T20:04:16.313Z,8.31
2023-02-19T20:06:43.068Z,8.35
2023-02-19T20:09:09.620Z,8.33
2023-02-19T20:11:42.750Z,8.38
2023-02-19T20:14:11.061Z,8.54
2023-02-19T20:16:37.557Z,8.50
2023-02-19T20:19:04.764Z,8.45
2023-02-19T20:21:31.739Z,8.43
2023-02-19T20:23:58.225Z,8.43
2023-02-19T20:26:26.530Z,8.51
2023-02-19T20:28:54.573Z,8.45
2023-02-19T20:31:22.031Z,8.50
2023-02-19T20:33:51.003Z,8.43
2023-02-19T20:36:19.971Z,8.35
2023-02-19T20:38:47.228Z,8.43
2023-02-19T20:41:13.985Z,8.46
2023-02-19T20:43:40.745Z,8.40
2023-02-19T20:46:07.707Z,8.33
2023-02-19T20:48:34.314Z,8.29
2023-02-19T20:51:00.914Z,8.24
2023-02-19T20:53:28.610Z,8.24
2023-02-19T20:55:56.237Z,8.28
2023-02-19T20:58:23.545Z,8.31
2023-02-19T21:00:50.197Z,8.36
2023-02-19T21:03:16.675Z,8.39
2023-02-19T21:05:43.333Z,8.36
2023-02-19T21:08:11.654Z,8.33
2023-02-19T21:10:38.352Z,8.30
2023-02-19T21:13:04.907Z,8.30
2023-02-19T21:15:31.584Z,8.28
2023-02-19T21:17:58.141Z,8.28
2023-02-19T21:20:24.589Z,8.36
2023-02-19T21:22:51.143Z,8.40
2023-02-19T21:25:17.692Z,8.38
2023-02-19T21:27:44.213Z,8.40
2023-02-19T21:30:10.980Z,8.48
2023-02-19T21:32:37.597Z,8.44
2023-02-19T21:35:04.429Z,8.41
2023-02-19T21:37:30.909Z,8.44
2023-02-19T21:39:58.735Z,8.37
2023-02-19T21:42:25.233Z,8.38
2023-02-19T21:44:51.802Z,8.43
2023-02-19T21:47:18.356Z,8.39
2023-02-19T21:49:45.588Z,8.41
2023-02-19T21:52:12.175Z,8.39
2023-02-19T21:54:38.786Z,8.33
2023-02-19T21:57:05.386Z,8.29
2023-02-19T21:59:31.897Z,8.25
2023-02-19T22:01:58.432Z,8.26
2023-02-19T22:04:24.950Z,8.25
2023-02-19T22:06:54.889Z,8.31
2023-02-19T22:09:21.411Z,8.28
2023-02-19T22:11:47.887Z,8.31
2023-02-19T22:14:14.457Z,8.27
2023-02-19T22:16:41.019Z,8.29
2023-02-19T22:19:07.591Z,8.28
2023-02-19T22:21:34.103Z,8.22
2023-02-19T22:24:02.505Z,8.16
2023-02-19T22:26:35.679Z,8.13
2023-02-19T22:29:07.148Z,8.13
2023-02-19T22:31:34.788Z,8.10
2023-02-19T22:34:01.453Z,8.12
2023-02-19T22:36:40.314Z,8.12
2023-02-19T22:39:08.776Z,8.27
2023-02-19T22:41:35.294Z,8.32
2023-02-19T22:44:02.038Z,8.22
2023-02-19T22:46:30.537Z,8.18
2023-02-19T22:48:57.601Z,8.15
2023-02-19T22:51:25.570Z,8.13
2023-02-19T22:53:57.204Z,8.06
2023-02-19T22:56:26.381Z,8.02
2023-02-19T22:58:54.396Z,8.04
2023-02-19T23:01:21.552Z,8.05
2023-02-19T23:03:49.321Z,8.01
2023-02-19T23:06:24.498Z,7.96
2023-02-19T23:08:52.281Z,8.03
2023-02-19T23:11:26.190Z,8.05
2023-02-19T23:13:53.401Z,8.09
2023-02-19T23:16:20.277Z,8.02
2023-02-19T23:18:46.977Z,8.04
2023-02-19T23:21:13.864Z,8.02
2023-02-19T23:23:45.148Z,8.06
2023-02-19T23:26:13.352Z,7.99
2023-02-19T23:28:40.874Z,8.00
2023-02-19T23:31:07.930Z,7.99
2023-02-19T23:33:35.374Z,8.03
2023-02-19T23:36:02.184Z,8.04
2023-02-19T23:38:28.702Z,7.95
2023-02-19T23:40:55.269Z,7.90
2023-02-19T23:43:21.783Z,7.86
2023-02-19T23:45:48.364Z,7.81
2023-02-19T23:48:14.961Z,7.81
2023-02-19T23:50:41.638Z,7.79
2023-02-19T23:53:08.265Z,7.79
2023-02-19T23:55:34.736Z,7.79
2023-02-19T23:58:01.348Z,7.83
